Nearby METAR Reports

 

YBUD - Bundaberg, Australia
Distance from station: SSW 6km
Updated: 09/04/2020 08:00
Overcast
Overcast
 Wind from SSE
Wind: SSE 15 km/h
Temperature: 22°C
Dew Point: 18°C
Humidity: 78%
Barometer: 1020 hPa
Clouds: Overcast
Visibility: 10 km
Cloud details: Partly cloudy 1128 m
Overcast 2286 m
2020/04/08 22:00 YBUD 082200Z AUTO 16008KT 9999 // SCT037 OVC075 22/18 Q1020
YGLA - Gladstone, Australia
Distance from station: NW 159km
Updated: 09/04/2020 08:00
Overcast
Overcast
 Wind from SSE
Wind: SSE 13 km/h
Temperature: 23°C
Dew Point: 17°C
Humidity: 69%
Barometer: 1020 hPa
Clouds: Overcast
Visibility: 10 km
Cloud details: Overcast 1737 m
2020/04/08 22:00 YGLA 082200Z AUTO 16007KT 9999 // OVC057 23/17 Q1020 RF00.0/000.0
YBRK - Rockhampton Airp, Australia
Distance from station: NW 252km
Updated: 09/04/2020 08:00
Mostly cloudy
Mostly cloudy
 Wind from SE
Wind: SE 19 km/h
Temperature: 22°C
Dew Point: 18°C
Humidity: 78%
Barometer: 1019 hPa
Clouds: Mostly cloudy
Visibility: 10 km
Cloud details: Mostly cloudy 2408 m
2020/04/08 22:00 YBRK 082200Z AUTO 13010KT 9999 // BKN079 22/18 Q1019
 
YBBN - Brisbane Intl Ar, Australia
Distance from station: SSE 292km
Updated: 09/04/2020 08:00
Mostly cloudy
Mostly cloudy
 Wind from S
Wind: S 11 km/h
Temperature: 22°C
Dew Point: 16°C
Humidity: 69%
Barometer: 1023 hPa
Clouds: Mostly cloudy
Visibility: 10 km
Cloud details: Few Clouds 914 m
Mostly cloudy 1524 m
2020/04/08 22:00 YBBN 082200Z 19006KT 9999 FEW030 BKN050 22/16 Q1023
YAMB - Amberley, Australia
Distance from station: S 312km
Updated: 09/04/2020 08:00
Mostly cloudy
Mostly cloudy
 Wind from SSE
Wind: SSE 11 km/h
Temperature: 22°C
Dew Point: 16°C
Humidity: 69%
Barometer: 1023 hPa
Clouds: Mostly cloudy
Visibility: 10 km
Cloud details: Partly cloudy 1372 m
Mostly cloudy 3048 m
2020/04/08 22:00 YAMB 082200Z 16006KT 9999 SCT045 BKN100 22/16 Q1023 NOSIG
YBCG - Coolangatta Aws, Australia
Distance from station: SSE 386km
Updated: 09/04/2020 08:00
Mostly cloudy
Mostly cloudy
 Wind from SSW
Wind: SSW 13 km/h
Temperature: 21°C
Dew Point: 16°C
Humidity: 73%
Barometer: 1023 hPa
Clouds: Mostly cloudy
Visibility: 10 km
Cloud details: Partly cloudy 1524 m
Mostly cloudy 1890 m
Mostly cloudy 3505 m
2020/04/08 22:00 YBCG 082200Z AUTO 20007KT 9999 // SCT050 BKN062 BKN115 21/16 Q1023